createdAt,value
2022-12-18T00:01:49.510Z,-4.26
2022-12-18T00:04:52.762Z,-4.25
2022-12-18T00:07:55.655Z,-4.31
2022-12-18T00:11:07.086Z,-4.38
2022-12-18T00:14:12.588Z,-4.35
2022-12-18T00:17:15.802Z,-4.31
2022-12-18T00:20:24.721Z,-4.40
2022-12-18T00:23:28.757Z,-4.40
2022-12-18T00:26:34.627Z,-4.40
2022-12-18T00:29:41.015Z,-4.47
2022-12-18T00:32:44.174Z,-4.45
2022-12-18T00:35:47.327Z,-4.45
2022-12-18T00:38:50.477Z,-4.47
2022-12-18T00:42:12.645Z,-4.47
2022-12-18T00:45:16.067Z,-4.50
2022-12-18T00:48:19.246Z,-4.54
2022-12-18T00:51:22.155Z,-4.53
2022-12-18T00:54:25.475Z,-4.50
2022-12-18T00:57:28.439Z,-4.47
2022-12-18T01:00:31.748Z,-4.41
2022-12-18T01:03:34.608Z,-4.42
2022-12-18T01:06:38.091Z,-4.43
2022-12-18T01:09:41.252Z,-4.51
2022-12-18T01:12:44.969Z,-4.55
2022-12-18T01:15:52.599Z,-4.47
2022-12-18T01:18:55.877Z,-4.45
2022-12-18T01:22:00.480Z,-4.44
2022-12-18T01:25:05.384Z,-4.44
2022-12-18T01:28:08.354Z,-4.41
2022-12-18T01:31:22.863Z,-4.43
2022-12-18T01:34:25.836Z,-4.47
2022-12-18T01:37:29.014Z,-4.53
2022-12-18T01:40:33.290Z,-4.45
2022-12-18T01:43:44.963Z,-4.39
2022-12-18T01:46:47.804Z,-4.47
2022-12-18T01:49:51.666Z,-4.50
2022-12-18T01:53:00.527Z,-4.40
2022-12-18T01:56:04.385Z,-4.39
2022-12-18T01:59:09.477Z,-4.46
2022-12-18T02:02:13.535Z,-4.51
2022-12-18T02:05:20.444Z,-4.62
2022-12-18T02:08:37.446Z,-4.62
2022-12-18T02:11:57.715Z,-4.60
2022-12-18T02:15:11.405Z,-4.71
2022-12-18T02:18:42.949Z,-4.62
2022-12-18T02:21:53.168Z,-4.60
2022-12-18T02:25:25.243Z,-4.67
2022-12-18T02:28:33.316Z,-4.73
2022-12-18T02:31:41.380Z,-4.72
2022-12-18T02:34:44.986Z,-4.66
2022-12-18T02:37:49.358Z,-4.62
2022-12-18T02:40:54.892Z,-4.71
2022-12-18T02:44:02.701Z,-4.77
2022-12-18T02:47:07.291Z,-4.81
2022-12-18T02:50:32.467Z,-4.83
2022-12-18T02:53:47.616Z,-4.94
2022-12-18T02:56:53.451Z,-4.99
2022-12-18T03:00:04.940Z,-4.96
2022-12-18T03:03:32.456Z,-4.99
2022-12-18T03:06:42.297Z,-4.95
2022-12-18T03:09:49.581Z,-4.92
2022-12-18T03:12:56.013Z,-4.90
2022-12-18T03:16:00.401Z,-4.94
2022-12-18T03:19:07.170Z,-4.94
2022-12-18T03:22:11.289Z,-4.92
2022-12-18T03:25:16.279Z,-4.95
2022-12-18T03:28:22.560Z,-4.94
2022-12-18T03:31:27.544Z,-4.91
2022-12-18T03:34:34.325Z,-4.93
2022-12-18T03:37:39.588Z,-4.99
2022-12-18T03:41:03.092Z,-5.08
2022-12-18T03:44:29.437Z,-5.10
2022-12-18T03:47:40.664Z,-5.11
2022-12-18T03:50:59.115Z,-4.98
2022-12-18T03:54:06.521Z,-4.94
2022-12-18T03:57:19.895Z,-4.99
2022-12-18T04:00:24.059Z,-4.91
2022-12-18T04:03:30.264Z,-4.88
2022-12-18T04:06:33.563Z,-4.85
2022-12-18T04:09:37.987Z,-4.91
2022-12-18T04:12:40.951Z,-4.94
2022-12-18T04:15:46.324Z,-4.96
2022-12-18T04:18:49.810Z,-5.00
2022-12-18T04:21:55.213Z,-5.02
2022-12-18T04:24:59.091Z,-5.10
2022-12-18T04:28:04.159Z,-5.11
2022-12-18T04:31:07.383Z,-5.11
2022-12-18T04:34:10.719Z,-5.14
2022-12-18T04:37:13.861Z,-5.12
2022-12-18T04:40:17.280Z,-5.18
2022-12-18T04:43:20.897Z,-5.06
2022-12-18T04:46:24.217Z,-4.88
2022-12-18T04:49:27.320Z,-4.88
2022-12-18T04:52:30.579Z,-4.90
2022-12-18T04:55:33.519Z,-4.92
2022-12-18T04:58:38.094Z,-4.82
2022-12-18T05:01:41.284Z,-4.84
2022-12-18T05:04:45.452Z,-4.88
2022-12-18T05:07:48.744Z,-4.78
2022-12-18T05:11:06.824Z,-4.84
2022-12-18T05:14:09.658Z,-4.85
2022-12-18T05:17:12.844Z,-4.92
2022-12-18T05:20:16.693Z,-4.94
2022-12-18T05:23:20.646Z,-4.95
2022-12-18T05:26:24.882Z,-4.95
2022-12-18T05:29:28.054Z,-5.02
2022-12-18T05:32:31.688Z,-5.05
2022-12-18T05:35:34.778Z,-5.09
2022-12-18T05:38:39.108Z,-5.13
2022-12-18T05:41:42.476Z,-5.19
2022-12-18T05:44:46.210Z,-5.22
2022-12-18T05:47:49.427Z,-5.27
2022-12-18T05:50:52.622Z,-5.31
2022-12-18T05:53:56.207Z,-5.37
2022-12-18T05:56:59.375Z,-5.39
2022-12-18T06:00:03.162Z,-5.42
2022-12-18T06:03:15.152Z,-5.40
2022-12-18T06:06:21.213Z,-5.44
2022-12-18T06:09:24.183Z,-5.37
2022-12-18T06:12:27.438Z,-5.37
2022-12-18T06:15:30.304Z,-5.36
2022-12-18T06:18:33.958Z,-5.19
2022-12-18T06:21:36.900Z,-5.15
2022-12-18T06:24:40.964Z,-5.13
2022-12-18T06:27:44.738Z,-5.12
2022-12-18T06:30:49.451Z,-5.21
2022-12-18T06:33:54.036Z,-5.24
2022-12-18T06:36:58.566Z,-5.15
2022-12-18T06:40:02.192Z,-5.07
2022-12-18T06:43:05.451Z,-5.02
2022-12-18T06:46:08.475Z,-5.05
2022-12-18T06:49:11.869Z,-5.14
2022-12-18T06:52:15.583Z,-5.14
2022-12-18T06:55:18.883Z,-5.13
2022-12-18T06:58:22.328Z,-5.10
2022-12-18T07:01:25.374Z,-5.10
2022-12-18T07:04:31.677Z,-5.10
2022-12-18T07:07:35.662Z,-5.04
2022-12-18T07:10:47.468Z,-4.98
2022-12-18T07:13:53.978Z,-4.92
2022-12-18T07:16:56.886Z,-4.84
2022-12-18T07:20:00.124Z,-4.79
2022-12-18T07:23:04.634Z,-4.74
2022-12-18T07:26:10.059Z,-4.75
2022-12-18T07:29:13.117Z,-4.70
2022-12-18T07:32:16.285Z,-4.63
2022-12-18T07:35:24.765Z,-4.60
2022-12-18T07:38:28.556Z,-4.52
2022-12-18T07:41:32.948Z,-4.41
2022-12-18T07:44:40.081Z,-4.36
2022-12-18T07:47:43.020Z,-4.34
2022-12-18T07:50:46.211Z,-4.32
2022-12-18T07:53:52.226Z,-4.27
2022-12-18T07:56:55.952Z,-4.20
2022-12-18T07:59:59.578Z,-4.13
2022-12-18T08:03:03.112Z,-4.04
2022-12-18T08:06:08.772Z,-3.94
2022-12-18T08:09:11.956Z,-4.06
2022-12-18T08:12:15.169Z,-3.86
2022-12-18T08:15:18.471Z,-3.86
2022-12-18T08:18:21.603Z,-3.84
2022-12-18T08:21:27.294Z,-3.74
2022-12-18T08:24:30.616Z,-3.82
2022-12-18T08:27:33.431Z,-3.93
2022-12-18T08:30:37.745Z,-3.97
2022-12-18T08:33:42.032Z,-3.74
2022-12-18T08:36:45.496Z,-3.77
2022-12-18T08:39:48.467Z,-3.89
2022-12-18T08:43:10.475Z,-3.82
2022-12-18T08:46:13.633Z,-3.88
2022-12-18T08:49:16.944Z,-3.87
2022-12-18T08:52:19.867Z,-3.69
2022-12-18T08:55:23.219Z,-3.53
2022-12-18T08:58:26.350Z,-3.53
2022-12-18T09:01:29.684Z,-3.33
2022-12-18T09:04:32.984Z,-3.15
2022-12-18T09:07:36.157Z,-3.32
2022-12-18T09:10:46.401Z,-3.25
2022-12-18T09:13:50.135Z,-3.30
2022-12-18T09:16:53.125Z,-3.34
2022-12-18T09:19:56.466Z,-3.00
2022-12-18T09:23:00.610Z,-2.87
2022-12-18T09:26:03.957Z,-2.93
2022-12-18T09:29:08.793Z,-3.06
2022-12-18T09:32:18.940Z,-2.86
2022-12-18T09:35:25.297Z,-2.90
2022-12-18T09:38:28.839Z,-3.05
2022-12-18T09:41:56.945Z,-2.55
2022-12-18T09:45:00.738Z,-2.75
2022-12-18T09:48:04.965Z,-2.81
2022-12-18T09:51:21.845Z,-2.98
2022-12-18T09:54:33.244Z,-2.62
2022-12-18T09:57:40.661Z,-2.41
2022-12-18T10:00:43.811Z,-2.27
2022-12-18T10:03:47.314Z,-2.38
2022-12-18T10:07:08.936Z,-2.21
2022-12-18T10:10:28.617Z,-2.07
2022-12-18T10:13:37.766Z,-2.42
2022-12-18T10:16:53.081Z,-2.05
2022-12-18T10:19:59.807Z,-2.03
2022-12-18T10:23:16.047Z,-2.07
2022-12-18T10:26:19.358Z,-2.18
2022-12-18T10:29:23.968Z,-1.82
2022-12-18T10:32:29.827Z,-1.76
2022-12-18T10:35:33.068Z,-1.80
2022-12-18T10:38:36.059Z,-1.83
2022-12-18T10:41:39.233Z,-1.59
2022-12-18T10:44:42.157Z,-1.74
2022-12-18T10:47:47.745Z,-1.58
2022-12-18T10:54:23.344Z,-1.09
2022-12-18T10:57:32.742Z,-1.18
2022-12-18T11:00:37.165Z,-1.12
2022-12-18T11:03:45.024Z,-0.93
2022-12-18T11:07:01.181Z,-1.15
2022-12-18T11:10:04.073Z,-0.70
2022-12-18T11:13:28.096Z,-0.55
2022-12-18T11:16:34.928Z,0.03
2022-12-18T11:19:40.920Z,0.33
2022-12-18T11:22:44.047Z,0.42
2022-12-18T11:25:59.145Z,0.36
2022-12-18T11:29:18.438Z,0.82
2022-12-18T11:32:35.643Z,1.58
2022-12-18T11:35:43.495Z,2.08
2022-12-18T11:38:48.149Z,1.09
2022-12-18T11:42:10.304Z,1.81
2022-12-18T11:45:14.662Z,2.43
2022-12-18T11:48:22.674Z,3.00
2022-12-18T11:51:38.569Z,3.44
2022-12-18T11:54:41.549Z,4.22
2022-12-18T11:57:50.718Z,3.48
2022-12-18T12:01:13.274Z,4.78
2022-12-18T12:04:42.884Z,5.19
2022-12-18T12:08:07.244Z,5.94
2022-12-18T12:11:13.555Z,5.73
2022-12-18T12:14:40.572Z,6.01
2022-12-18T12:17:51.499Z,6.26
2022-12-18T12:21:17.367Z,6.82
2022-12-18T12:24:39.417Z,5.70
2022-12-18T12:27:52.385Z,6.47
2022-12-18T12:31:01.620Z,6.83
2022-12-18T12:34:16.515Z,7.69
2022-12-18T12:37:19.911Z,8.07
2022-12-18T12:41:02.265Z,8.22
2022-12-18T12:43:50.790Z,6.54
2022-12-18T12:46:58.915Z,8.50
2022-12-18T12:50:05.889Z,8.21
2022-12-18T12:53:19.510Z,7.78
2022-12-18T12:56:23.463Z,8.24
2022-12-18T12:59:54.314Z,9.30
2022-12-18T13:03:13.709Z,8.71
2022-12-18T13:06:44.511Z,9.78
2022-12-18T13:10:12.093Z,10.03
2022-12-18T13:13:23.329Z,9.11
2022-12-18T13:16:28.688Z,9.11
2022-12-18T13:19:31.627Z,8.76
2022-12-18T13:22:36.426Z,9.77
2022-12-18T13:25:39.426Z,8.85
2022-12-18T13:28:49.040Z,8.72
2022-12-18T13:31:51.859Z,8.56
2022-12-18T13:35:23.230Z,9.46
2022-12-18T13:38:27.446Z,9.81
2022-12-18T13:41:30.612Z,9.93
2022-12-18T13:44:40.824Z,10.21
2022-12-18T13:47:45.022Z,9.84
2022-12-18T13:51:04.921Z,10.06
2022-12-18T13:54:15.321Z,8.62
2022-12-18T13:57:29.163Z,8.70
2022-12-18T14:00:33.107Z,8.36
2022-12-18T14:03:36.793Z,8.61
2022-12-18T14:06:40.003Z,6.73
2022-12-18T14:10:18.837Z,7.72
2022-12-18T14:13:28.017Z,8.76
2022-12-18T14:16:31.473Z,7.14
2022-12-18T14:19:35.397Z,7.14
2022-12-18T14:22:38.561Z,6.75
2022-12-18T14:25:47.304Z,5.89
2022-12-18T14:28:50.527Z,4.58
2022-12-18T14:32:21.059Z,4.62
2022-12-18T14:35:25.212Z,4.02
2022-12-18T14:38:50.856Z,3.69
2022-12-18T14:41:54.393Z,2.57
2022-12-18T14:45:41.499Z,2.32
2022-12-18T14:48:48.567Z,1.82
2022-12-18T14:51:54.317Z,1.39
2022-12-18T14:54:57.595Z,0.83
2022-12-18T14:58:00.863Z,0.55
2022-12-18T15:01:04.545Z,0.32
2022-12-18T15:04:37.928Z,0.20
2022-12-18T15:07:44.208Z,-0.08
2022-12-18T15:10:52.439Z,-0.35
2022-12-18T15:13:56.717Z,-0.49
2022-12-18T15:17:02.404Z,-0.80
2022-12-18T15:20:11.646Z,-0.93
2022-12-18T15:23:46.858Z,-1.02
2022-12-18T15:26:51.583Z,-1.21
2022-12-18T15:30:03.720Z,-1.36
2022-12-18T15:33:28.891Z,-1.41
2022-12-18T15:36:32.792Z,-1.46
2022-12-18T15:39:37.029Z,-1.54
2022-12-18T15:42:58.495Z,-1.63
2022-12-18T15:46:18.128Z,-1.75
2022-12-18T15:49:22.340Z,-1.88
2022-12-18T15:52:27.938Z,-1.98
2022-12-18T15:55:50.191Z,-2.05
2022-12-18T15:58:55.323Z,-2.13
2022-12-18T16:01:58.963Z,-2.19
2022-12-18T16:05:04.613Z,-2.23
2022-12-18T16:08:08.094Z,-2.32
2022-12-18T16:11:42.174Z,-2.38
2022-12-18T16:14:47.892Z,-2.46
2022-12-18T16:17:54.208Z,-2.57
2022-12-18T16:21:00.442Z,-2.56
2022-12-18T16:24:05.144Z,-2.65
2022-12-18T16:27:09.464Z,-2.61
2022-12-18T16:30:19.984Z,-2.66
2022-12-18T16:33:24.017Z,-2.68
2022-12-18T16:36:28.760Z,-2.65
2022-12-18T16:39:34.773Z,-2.64
2022-12-18T16:42:41.291Z,-2.66
2022-12-18T16:45:46.712Z,-2.75
2022-12-18T16:48:51.478Z,-2.80
2022-12-18T16:51:57.077Z,-2.89
2022-12-18T16:55:02.313Z,-2.93
2022-12-18T16:58:06.306Z,-2.99
2022-12-18T17:01:12.333Z,-3.03
2022-12-18T17:04:17.902Z,-3.11
2022-12-18T17:07:24.049Z,-3.20
2022-12-18T17:10:29.053Z,-3.15
2022-12-18T17:13:35.677Z,-3.20
2022-12-18T17:16:40.153Z,-3.22
2022-12-18T17:19:45.097Z,-3.29
2022-12-18T17:22:49.361Z,-3.36
2022-12-18T17:25:57.905Z,-3.42
2022-12-18T17:29:02.392Z,-3.49
2022-12-18T17:32:06.956Z,-3.51
2022-12-18T17:35:10.797Z,-3.56
2022-12-18T17:38:15.533Z,-3.55
2022-12-18T17:41:21.037Z,-3.53
2022-12-18T17:44:26.029Z,-3.56
2022-12-18T17:47:31.693Z,-3.62
2022-12-18T17:50:37.555Z,-3.62
2022-12-18T17:53:44.409Z,-3.63
2022-12-18T17:56:49.402Z,-3.66
2022-12-18T17:59:54.140Z,-3.82
2022-12-18T18:03:09.314Z,-3.85
2022-12-18T18:06:14.941Z,-3.84
2022-12-18T18:09:20.189Z,-3.91
2022-12-18T18:12:43.158Z,-3.95
2022-12-18T18:15:59.172Z,-3.97
2022-12-18T18:19:13.588Z,-3.97
2022-12-18T18:22:19.683Z,-4.04
2022-12-18T18:25:25.521Z,-4.09
2022-12-18T18:28:29.974Z,-4.09
2022-12-18T18:31:40.696Z,-4.08
2022-12-18T18:34:45.019Z,-4.06
2022-12-18T18:37:50.181Z,-4.06
2022-12-18T18:41:01.148Z,-4.07
2022-12-18T18:44:07.193Z,-4.06
2022-12-18T18:47:11.893Z,-4.14
2022-12-18T18:50:17.754Z,-4.11
2022-12-18T18:53:21.437Z,-4.14
2022-12-18T18:57:04.116Z,-4.16
2022-12-18T18:59:56.151Z,-4.12
2022-12-18T19:03:01.052Z,-4.13
2022-12-18T19:06:07.362Z,-4.19
2022-12-18T19:09:13.065Z,-4.30
2022-12-18T19:12:37.857Z,-4.29
2022-12-18T19:15:46.096Z,-4.25
2022-12-18T19:18:50.273Z,-4.22
2022-12-18T19:21:55.923Z,-4.32
2022-12-18T19:25:01.906Z,-4.36
2022-12-18T19:28:06.877Z,-4.32
2022-12-18T19:31:16.099Z,-4.30
2022-12-18T19:34:22.972Z,-4.23
2022-12-18T19:37:27.818Z,-4.11
2022-12-18T19:40:32.958Z,-3.94
2022-12-18T19:43:39.458Z,-3.94
2022-12-18T19:46:46.597Z,-3.94
2022-12-18T19:49:54.440Z,-3.94
2022-12-18T19:53:00.975Z,-3.99
2022-12-18T19:56:07.882Z,-4.05
2022-12-18T19:59:12.597Z,-4.07
2022-12-18T20:02:16.927Z,-4.12
2022-12-18T20:05:25.752Z,-4.07
2022-12-18T20:08:30.250Z,-4.16
2022-12-18T20:11:42.068Z,-4.12
2022-12-18T20:14:47.382Z,-4.15
2022-12-18T20:17:53.666Z,-4.20
2022-12-18T20:21:00.044Z,-4.23
2022-12-18T20:24:10.184Z,-4.28
2022-12-18T20:27:19.479Z,-4.37
2022-12-18T20:30:24.052Z,-4.39
2022-12-18T20:33:28.140Z,-4.40
2022-12-18T20:36:34.251Z,-4.37
2022-12-18T20:39:39.964Z,-4.42
2022-12-18T20:42:45.421Z,-4.46
2022-12-18T20:45:48.772Z,-4.49
2022-12-18T20:48:53.228Z,-4.50
2022-12-18T20:52:00.081Z,-4.49
2022-12-18T20:55:05.521Z,-4.48
2022-12-18T20:58:08.973Z,-4.51
2022-12-18T21:01:14.889Z,-4.43
2022-12-18T21:04:19.562Z,-4.44
2022-12-18T21:07:23.399Z,-4.44
2022-12-18T21:10:27.748Z,-4.26
2022-12-18T21:13:31.318Z,-4.18
2022-12-18T21:16:36.516Z,-4.18
2022-12-18T21:19:41.210Z,-4.19
2022-12-18T21:22:44.456Z,-4.21
2022-12-18T21:25:49.961Z,-4.23
2022-12-18T21:29:01.538Z,-4.23
2022-12-18T21:32:05.490Z,-4.19
2022-12-18T21:35:09.091Z,-4.13
2022-12-18T21:38:12.239Z,-4.20
2022-12-18T21:41:41.664Z,-4.23
2022-12-18T21:44:48.026Z,-4.26
2022-12-18T21:47:51.008Z,-4.27
2022-12-18T21:50:54.167Z,-4.30
2022-12-18T21:53:57.161Z,-4.34
2022-12-18T21:57:02.512Z,-4.32
2022-12-18T22:00:06.839Z,-4.33
2022-12-18T22:03:18.665Z,-4.34
2022-12-18T22:06:22.548Z,-4.32
2022-12-18T22:09:25.961Z,-4.33
2022-12-18T22:12:43.574Z,-4.42
2022-12-18T22:15:47.513Z,-4.49
2022-12-18T22:18:50.881Z,-4.46
2022-12-18T22:21:54.419Z,-4.53
2022-12-18T22:24:57.590Z,-4.51
2022-12-18T22:28:19.299Z,-4.55
2022-12-18T22:31:22.506Z,-4.51
2022-12-18T22:34:26.609Z,-4.51
2022-12-18T22:37:29.762Z,-4.50
2022-12-18T22:40:32.647Z,-4.50
2022-12-18T22:43:35.973Z,-4.46
2022-12-18T22:46:50.045Z,-4.43
2022-12-18T22:50:12.499Z,-4.39
2022-12-18T22:53:15.413Z,-4.42
2022-12-18T22:56:20.361Z,-4.51
2022-12-18T22:59:24.503Z,-4.54
2022-12-18T23:02:27.798Z,-4.58
2022-12-18T23:05:31.322Z,-4.62
2022-12-18T23:08:34.891Z,-4.63
2022-12-18T23:11:38.790Z,-4.46
2022-12-18T23:14:43.687Z,-4.47
2022-12-18T23:17:46.776Z,-4.46
2022-12-18T23:20:51.198Z,-4.45
2022-12-18T23:23:54.453Z,-4.45
2022-12-18T23:26:57.800Z,-4.37
2022-12-18T23:30:00.723Z,-4.36
2022-12-18T23:33:04.211Z,-4.35
2022-12-18T23:36:08.576Z,-4.31
2022-12-18T23:39:12.556Z,-4.32
2022-12-18T23:42:30.256Z,-4.34
2022-12-18T23:45:37.728Z,-4.35
2022-12-18T23:48:41.568Z,-4.41
2022-12-18T23:51:44.699Z,-4.40
2022-12-18T23:54:47.612Z,-4.39
2022-12-18T23:57:51.119Z,-4.41
